sensor_id;sensor_type;location;lat;lon;timestamp;pressure;altitude;pressure_sealevel;temperature;humidity
15229;BME280;7717;47.792;12.076;2023-04-09T00:02:11;96794.59;;;6.31;100.00
15229;BME280;7717;47.792;12.076;2023-04-09T00:04:37;96786.41;;;6.43;100.00
15229;BME280;7717;47.792;12.076;2023-04-09T00:07:03;96784.06;;;6.52;100.00
15229;BME280;7717;47.792;12.076;2023-04-09T00:09:28;96783.28;;;6.56;100.00
15229;BME280;7717;47.792;12.076;2023-04-09T00:11:54;96789.00;;;6.46;100.00
15229;BME280;7717;47.792;12.076;2023-04-09T00:14:21;96784.97;;;6.56;100.00
15229;BME280;7717;47.792;12.076;2023-04-09T00:16:46;96780.72;;;6.56;100.00
15229;BME280;7717;47.792;12.076;2023-04-09T00:19:11;96783.19;;;6.52;100.00
15229;BME280;7717;47.792;12.076;2023-04-09T00:21:37;96782.44;;;6.56;100.00
15229;BME280;7717;47.792;12.076;2023-04-09T00:24:03;96773.31;;;6.67;100.00
15229;BME280;7717;47.792;12.076;2023-04-09T00:26:28;96778.19;;;6.56;100.00
15229;BME280;7717;47.792;12.076;2023-04-09T00:28:55;96778.81;;;6.44;100.00
15229;BME280;7717;47.792;12.076;2023-04-09T00:31:20;96779.09;;;6.58;100.00
15229;BME280;7717;47.792;12.076;2023-04-09T00:33:45;96767.19;;;6.57;100.00
15229;BME280;7717;47.792;12.076;2023-04-09T00:36:11;96782.22;;;6.46;100.00
15229;BME280;7717;47.792;12.076;2023-04-09T00:38:36;96775.16;;;6.32;100.00
15229;BME280;7717;47.792;12.076;2023-04-09T00:41:02;96776.28;;;6.46;100.00
15229;BME280;7717;47.792;12.076;2023-04-09T00:43:27;96780.53;;;6.45;100.00
15229;BME280;7717;47.792;12.076;2023-04-09T00:45:53;96777.84;;;6.39;100.00
15229;BME280;7717;47.792;12.076;2023-04-09T00:48:19;96778.09;;;6.52;100.00
15229;BME280;7717;47.792;12.076;2023-04-09T00:50:45;96782.31;;;6.51;100.00
15229;BME280;7717;47.792;12.076;2023-04-09T00:53:11;96783.81;;;6.41;100.00
15229;BME280;7717;47.792;12.076;2023-04-09T00:55:39;96780.44;;;6.41;100.00
15229;BME280;7717;47.792;12.076;2023-04-09T00:58:04;96777.66;;;6.30;100.00
15229;BME280;7717;47.792;12.076;2023-04-09T01:00:30;96778.47;;;6.29;100.00
15229;BME280;7717;47.792;12.076;2023-04-09T01:02:56;96783.72;;;6.37;100.00
15229;BME280;7717;47.792;12.076;2023-04-09T01:05:49;96781.28;;;6.41;100.00
15229;BME280;7717;47.792;12.076;2023-04-09T01:10:55;96778.41;;;6.26;100.00
15229;BME280;7717;47.792;12.076;2023-04-09T01:13:29;96777.66;;;6.30;100.00
15229;BME280;7717;47.792;12.076;2023-04-09T01:16:00;96782.47;;;6.18;100.00
15229;BME280;7717;47.792;12.076;2023-04-09T01:18:35;96779.50;;;5.99;100.00
15229;BME280;7717;47.792;12.076;2023-04-09T01:21:07;96783.38;;;5.85;100.00
15229;BME280;7717;47.792;12.076;2023-04-09T01:26:37;96792.19;;;5.63;100.00
15229;BME280;7717;47.792;12.076;2023-04-09T01:29:06;96784.59;;;5.64;100.00
15229;BME280;7717;47.792;12.076;2023-04-09T01:31:35;96769.66;;;5.41;100.00
15229;BME280;7717;47.792;12.076;2023-04-09T01:34:02;96782.28;;;5.40;100.00
15229;BME280;7717;47.792;12.076;2023-04-09T01:36:30;96789.94;;;5.41;100.00
15229;BME280;7717;47.792;12.076;2023-04-09T01:38:56;96792.16;;;5.29;100.00
15229;BME280;7717;47.792;12.076;2023-04-09T01:41:24;96789.22;;;5.46;100.00
15229;BME280;7717;47.792;12.076;2023-04-09T01:43:52;96779.72;;;5.38;100.00
15229;BME280;7717;47.792;12.076;2023-04-09T01:46:18;96787.50;;;5.45;100.00
15229;BME280;7717;47.792;12.076;2023-04-09T01:48:45;96784.19;;;5.47;100.00
15229;BME280;7717;47.792;12.076;2023-04-09T01:51:11;96788.53;;;5.19;100.00
15229;BME280;7717;47.792;12.076;2023-04-09T01:53:39;96793.63;;;5.19;100.00
15229;BME280;7717;47.792;12.076;2023-04-09T01:56:05;96796.13;;;5.18;100.00
15229;BME280;7717;47.792;12.076;2023-04-09T01:58:31;96781.25;;;5.32;100.00
15229;BME280;7717;47.792;12.076;2023-04-09T02:01:25;96785.59;;;5.37;100.00
15229;BME280;7717;47.792;12.076;2023-04-09T02:03:57;96779.69;;;5.37;100.00
15229;BME280;7717;47.792;12.076;2023-04-09T02:06:45;96794.59;;;5.25;100.00
15229;BME280;7717;47.792;12.076;2023-04-09T02:09:15;96791.00;;;5.50;100.00
15229;BME280;7717;47.792;12.076;2023-04-09T02:11:42;96777.66;;;5.57;100.00
15229;BME280;7717;47.792;12.076;2023-04-09T02:14:08;96791.44;;;5.68;100.00
15229;BME280;7717;47.792;12.076;2023-04-09T02:16:36;96786.34;;;5.67;100.00
15229;BME280;7717;47.792;12.076;2023-04-09T02:19:02;96794.22;;;5.11;100.00
15229;BME280;7717;47.792;12.076;2023-04-09T02:21:28;96790.41;;;5.25;100.00
15229;BME280;7717;47.792;12.076;2023-04-09T02:23:54;96792.63;;;5.13;100.00
15229;BME280;7717;47.792;12.076;2023-04-09T02:26:20;96786.16;;;5.26;100.00
15229;BME280;7717;47.792;12.076;2023-04-09T02:28:46;96790.78;;;5.09;100.00
15229;BME280;7717;47.792;12.076;2023-04-09T02:31:11;96783.09;;;5.05;100.00
15229;BME280;7717;47.792;12.076;2023-04-09T02:33:36;96785.53;;;5.01;100.00
15229;BME280;7717;47.792;12.076;2023-04-09T02:36:02;96789.81;;;5.03;100.00
15229;BME280;7717;47.792;12.076;2023-04-09T02:38:27;96784.19;;;5.15;100.00
15229;BME280;7717;47.792;12.076;2023-04-09T02:40:52;96787.47;;;5.10;100.00
15229;BME280;7717;47.792;12.076;2023-04-09T02:43:18;96782.22;;;5.03;100.00
15229;BME280;7717;47.792;12.076;2023-04-09T02:45:43;96778.03;;;5.05;100.00
15229;BME280;7717;47.792;12.076;2023-04-09T02:48:08;96786.44;;;5.04;100.00
15229;BME280;7717;47.792;12.076;2023-04-09T02:50:34;96783.03;;;5.02;100.00
15229;BME280;7717;47.792;12.076;2023-04-09T02:52:59;96772.72;;;4.96;100.00
15229;BME280;7717;47.792;12.076;2023-04-09T02:55:25;96783.66;;;4.95;100.00
15229;BME280;7717;47.792;12.076;2023-04-09T02:57:51;96783.28;;;4.80;100.00
15229;BME280;7717;47.792;12.076;2023-04-09T03:00:16;96781.75;;;4.56;100.00
15229;BME280;7717;47.792;12.076;2023-04-09T03:02:42;96778.13;;;4.77;100.00
15229;BME280;7717;47.792;12.076;2023-04-09T03:05:07;96789.41;;;4.88;100.00
15229;BME280;7717;47.792;12.076;2023-04-09T03:07:33;96790.47;;;4.96;100.00
15229;BME280;7717;47.792;12.076;2023-04-09T03:09:58;96794.56;;;4.91;100.00
15229;BME280;7717;47.792;12.076;2023-04-09T03:12:23;96788.97;;;4.73;100.00
15229;BME280;7717;47.792;12.076;2023-04-09T03:14:49;96799.13;;;4.73;100.00
15229;BME280;7717;47.792;12.076;2023-04-09T03:17:14;96782.47;;;5.13;100.00
15229;BME280;7717;47.792;12.076;2023-04-09T03:19:39;96787.56;;;5.14;100.00
15229;BME280;7717;47.792;12.076;2023-04-09T03:22:05;96783.16;;;5.07;100.00
15229;BME280;7717;47.792;12.076;2023-04-09T03:24:31;96799.91;;;5.00;100.00
15229;BME280;7717;47.792;12.076;2023-04-09T03:26:57;96792.53;;;5.10;100.00
15229;BME280;7717;47.792;12.076;2023-04-09T03:29:22;96789.19;;;5.12;100.00
15229;BME280;7717;47.792;12.076;2023-04-09T03:31:48;96793.16;;;5.02;100.00
15229;BME280;7717;47.792;12.076;2023-04-09T03:34:13;96776.34;;;5.06;100.00
15229;BME280;7717;47.792;12.076;2023-04-09T03:36:38;96795.16;;;5.13;100.00
15229;BME280;7717;47.792;12.076;2023-04-09T03:39:04;96793.91;;;5.30;100.00
15229;BME280;7717;47.792;12.076;2023-04-09T03:41:29;96794.63;;;5.26;100.00
15229;BME280;7717;47.792;12.076;2023-04-09T03:43:55;96796.25;;;5.22;100.00
15229;BME280;7717;47.792;12.076;2023-04-09T03:46:20;96785.31;;;5.25;100.00
15229;BME280;7717;47.792;12.076;2023-04-09T03:48:46;96799.91;;;5.34;100.00
15229;BME280;7717;47.792;12.076;2023-04-09T03:51:12;96796.38;;;5.27;100.00
15229;BME280;7717;47.792;12.076;2023-04-09T03:53:38;96794.59;;;5.25;100.00
15229;BME280;7717;47.792;12.076;2023-04-09T03:56:04;96793.75;;;5.24;100.00
15229;BME280;7717;47.792;12.076;2023-04-09T03:58:29;96795.41;;;5.22;100.00
15229;BME280;7717;47.792;12.076;2023-04-09T04:00:55;96801.28;;;5.21;100.00
15229;BME280;7717;47.792;12.076;2023-04-09T04:03:20;96797.31;;;5.32;100.00
15229;BME280;7717;47.792;12.076;2023-04-09T04:05:45;96791.44;;;5.33;100.00
15229;BME280;7717;47.792;12.076;2023-04-09T04:08:11;96802.25;;;5.26;100.00
15229;BME280;7717;47.792;12.076;2023-04-09T04:10:36;96792.97;;;5.28;100.00
15229;BME280;7717;47.792;12.076;2023-04-09T04:13:01;96789.75;;;5.34;100.00
15229;BME280;7717;47.792;12.076;2023-04-09T04:15:27;96803.25;;;5.33;100.00
15229;BME280;7717;47.792;12.076;2023-04-09T04:17:53;96800.84;;;5.37;100.00
15229;BME280;7717;47.792;12.076;2023-04-09T04:20:19;96804.94;;;5.32;100.00
15229;BME280;7717;47.792;12.076;2023-04-09T04:22:44;96803.91;;;5.24;100.00
15229;BME280;7717;47.792;12.076;2023-04-09T04:25:10;96798.41;;;5.09;100.00
15229;BME280;7717;47.792;12.076;2023-04-09T04:27:35;96797.41;;;5.02;100.00
15229;BME280;7717;47.792;12.076;2023-04-09T04:30:00;96784.69;;;4.70;100.00
15229;BME280;7717;47.792;12.076;2023-04-09T04:32:26;96781.16;;;4.65;100.00
15229;BME280;7717;47.792;12.076;2023-04-09T04:34:52;96780.13;;;4.58;100.00
15229;BME280;7717;47.792;12.076;2023-04-09T04:37:17;96785.50;;;4.69;100.00
15229;BME280;7717;47.792;12.076;2023-04-09T04:39:43;96787.47;;;4.79;100.00
15229;BME280;7717;47.792;12.076;2023-04-09T04:42:08;96790.75;;;5.07;100.00
15229;BME280;7717;47.792;12.076;2023-04-09T04:44:33;96799.22;;;5.08;100.00
15229;BME280;7717;47.792;12.076;2023-04-09T04:46:59;96796.94;;;5.17;100.00
15229;BME280;7717;47.792;12.076;2023-04-09T04:49:24;96794.38;;;5.17;100.00
15229;BME280;7717;47.792;12.076;2023-04-09T04:51:50;96808.94;;;5.22;100.00
15229;BME280;7717;47.792;12.076;2023-04-09T04:54:15;96797.66;;;5.11;100.00
15229;BME280;7717;47.792;12.076;2023-04-09T04:56:40;96805.94;;;5.05;100.00
15229;BME280;7717;47.792;12.076;2023-04-09T04:59:06;96812.69;;;5.05;100.00
15229;BME280;7717;47.792;12.076;2023-04-09T05:01:31;96810.69;;;5.25;100.00
15229;BME280;7717;47.792;12.076;2023-04-09T05:03:56;96811.66;;;5.30;100.00
15229;BME280;7717;47.792;12.076;2023-04-09T05:06:22;96806.94;;;5.12;100.00
15229;BME280;7717;47.792;12.076;2023-04-09T05:08:47;96819.44;;;5.04;100.00
15229;BME280;7717;47.792;12.076;2023-04-09T05:11:12;96816.13;;;5.07;100.00
15229;BME280;7717;47.792;12.076;2023-04-09T05:13:39;96808.09;;;4.92;100.00
15229;BME280;7717;47.792;12.076;2023-04-09T05:16:05;96810.75;;;5.27;100.00
15229;BME280;7717;47.792;12.076;2023-04-09T05:18:31;96812.75;;;5.40;100.00
15229;BME280;7717;47.792;12.076;2023-04-09T05:20:56;96807.25;;;5.23;100.00
15229;BME280;7717;47.792;12.076;2023-04-09T05:23:22;96811.00;;;5.37;100.00
15229;BME280;7717;47.792;12.076;2023-04-09T05:25:48;96815.34;;;5.41;100.00
15229;BME280;7717;47.792;12.076;2023-04-09T05:28:14;96817.50;;;5.59;100.00
15229;BME280;7717;47.792;12.076;2023-04-09T05:30:44;96814.59;;;5.46;100.00
15229;BME280;7717;47.792;12.076;2023-04-09T05:33:10;96812.31;;;5.55;100.00
15229;BME280;7717;47.792;12.076;2023-04-09T05:35:39;96811.38;;;5.53;100.00
15229;BME280;7717;47.792;12.076;2023-04-09T05:38:04;96818.06;;;5.49;100.00
15229;BME280;7717;47.792;12.076;2023-04-09T05:40:30;96820.38;;;5.40;100.00
15229;BME280;7717;47.792;12.076;2023-04-09T05:42:55;96817.78;;;5.38;100.00
15229;BME280;7717;47.792;12.076;2023-04-09T05:45:20;96829.34;;;5.27;100.00
15229;BME280;7717;47.792;12.076;2023-04-09T05:47:46;96824.66;;;5.41;100.00
15229;BME280;7717;47.792;12.076;2023-04-09T05:50:11;96827.03;;;5.35;100.00
15229;BME280;7717;47.792;12.076;2023-04-09T05:52:37;96826.84;;;5.62;100.00
15229;BME280;7717;47.792;12.076;2023-04-09T05:55:02;96834.19;;;5.85;100.00
15229;BME280;7717;47.792;12.076;2023-04-09T05:57:29;96825.97;;;5.60;100.00
15229;BME280;7717;47.792;12.076;2023-04-09T05:59:55;96829.56;;;6.02;100.00
15229;BME280;7717;47.792;12.076;2023-04-09T06:02:21;96832.25;;;6.09;100.00
15229;BME280;7717;47.792;12.076;2023-04-09T06:04:47;96836.13;;;6.30;100.00
15229;BME280;7717;47.792;12.076;2023-04-09T06:07:12;96830.81;;;6.19;100.00
15229;BME280;7717;47.792;12.076;2023-04-09T06:09:37;96839.09;;;6.12;100.00
15229;BME280;7717;47.792;12.076;2023-04-09T06:12:03;96839.13;;;6.13;100.00
15229;BME280;7717;47.792;12.076;2023-04-09T06:14:28;96837.38;;;6.11;100.00
15229;BME280;7717;47.792;12.076;2023-04-09T06:16:54;96843.81;;;6.33;100.00
15229;BME280;7717;47.792;12.076;2023-04-09T06:19:19;96834.53;;;6.35;100.00
15229;BME280;7717;47.792;12.076;2023-04-09T06:21:44;96843.50;;;6.57;100.00
15229;BME280;7717;47.792;12.076;2023-04-09T06:24:10;96833.94;;;6.45;100.00
15229;BME280;7717;47.792;12.076;2023-04-09T06:26:36;96843.81;;;5.97;100.00
15229;BME280;7717;47.792;12.076;2023-04-09T06:29:01;96854.44;;;5.82;100.00
15229;BME280;7717;47.792;12.076;2023-04-09T06:31:27;96854.53;;;5.85;100.00
15229;BME280;7717;47.792;12.076;2023-04-09T06:33:52;96856.25;;;5.87;100.00
15229;BME280;7717;47.792;12.076;2023-04-09T06:36:18;96846.56;;;5.71;100.00
15229;BME280;7717;47.792;12.076;2023-04-09T06:38:44;96851.13;;;5.86;100.00
15229;BME280;7717;47.792;12.076;2023-04-09T06:41:09;96863.03;;;5.87;100.00
15229;BME280;7717;47.792;12.076;2023-04-09T06:43:36;96867.19;;;6.18;100.00
15229;BME280;7717;47.792;12.076;2023-04-09T06:46:02;96860.59;;;5.91;100.00
15229;BME280;7717;47.792;12.076;2023-04-09T06:48:27;96872.16;;;6.13;100.00
15229;BME280;7717;47.792;12.076;2023-04-09T06:50:53;96873.75;;;6.08;100.00
15229;BME280;7717;47.792;12.076;2023-04-09T06:53:18;96874.41;;;6.36;100.00
15229;BME280;7717;47.792;12.076;2023-04-09T06:55:44;96866.38;;;6.57;100.00
15229;BME280;7717;47.792;12.076;2023-04-09T06:58:09;96850.34;;;6.60;100.00
15229;BME280;7717;47.792;12.076;2023-04-09T07:00:35;96861.31;;;7.41;100.00
15229;BME280;7717;47.792;12.076;2023-04-09T07:03:00;96869.06;;;7.05;100.00
15229;BME280;7717;47.792;12.076;2023-04-09T07:05:26;96863.66;;;6.88;100.00
15229;BME280;7717;47.792;12.076;2023-04-09T07:07:51;96865.91;;;6.74;100.00
15229;BME280;7717;47.792;12.076;2023-04-09T07:10:17;96866.06;;;6.81;100.00
15229;BME280;7717;47.792;12.076;2023-04-09T07:12:42;96873.88;;;6.91;100.00
15229;BME280;7717;47.792;12.076;2023-04-09T07:15:08;96864.00;;;7.06;100.00
15229;BME280;7717;47.792;12.076;2023-04-09T07:17:33;96873.13;;;6.95;100.00
15229;BME280;7717;47.792;12.076;2023-04-09T07:19:59;96860.59;;;7.04;100.00
15229;BME280;7717;47.792;12.076;2023-04-09T07:22:25;96860.28;;;7.33;100.00
15229;BME280;7717;47.792;12.076;2023-04-09T07:24:51;96861.09;;;7.78;100.00
15229;BME280;7717;47.792;12.076;2023-04-09T07:27:20;96850.91;;;7.78;100.00
15229;BME280;7717;47.792;12.076;2023-04-09T07:29:45;96857.50;;;8.18;100.00
15229;BME280;7717;47.792;12.076;2023-04-09T07:32:11;96847.25;;;8.15;100.00
15229;BME280;7717;47.792;12.076;2023-04-09T07:34:36;96849.69;;;8.64;100.00
15229;BME280;7717;47.792;12.076;2023-04-09T07:37:02;96844.66;;;9.42;100.00
15229;BME280;7717;47.792;12.076;2023-04-09T07:39:27;96839.47;;;10.28;100.00
15229;BME280;7717;47.792;12.076;2023-04-09T07:41:52;96853.66;;;9.08;100.00
15229;BME280;7717;47.792;12.076;2023-04-09T07:44:18;96850.03;;;8.90;100.00
15229;BME280;7717;47.792;12.076;2023-04-09T07:46:43;96842.56;;;8.43;100.00
15229;BME280;7717;47.792;12.076;2023-04-09T07:49:08;96845.63;;;8.75;100.00
15229;BME280;7717;47.792;12.076;2023-04-09T07:51:34;96843.94;;;9.51;100.00
15229;BME280;7717;47.792;12.076;2023-04-09T07:53:59;96840.59;;;9.58;100.00
15229;BME280;7717;47.792;12.076;2023-04-09T07:56:24;96840.56;;;9.55;100.00
15229;BME280;7717;47.792;12.076;2023-04-09T07:58:50;96835.06;;;10.07;100.00
15229;BME280;7717;47.792;12.076;2023-04-09T08:01:16;96841.56;;;9.71;100.00
15229;BME280;7717;47.792;12.076;2023-04-09T08:03:41;96846.91;;;9.97;100.00
15229;BME280;7717;47.792;12.076;2023-04-09T08:06:06;96837.78;;;10.30;100.00
15229;BME280;7717;47.792;12.076;2023-04-09T08:08:32;96833.88;;;10.83;100.00
15229;BME280;7717;47.792;12.076;2023-04-09T08:10:58;96832.81;;;10.46;100.00
15229;BME280;7717;47.792;12.076;2023-04-09T08:13:23;96831.91;;;10.42;100.00
15229;BME280;7717;47.792;12.076;2023-04-09T08:15:52;96826.75;;;10.37;100.00
15229;BME280;7717;47.792;12.076;2023-04-09T08:18:17;96838.97;;;10.77;100.00
15229;BME280;7717;47.792;12.076;2023-04-09T08:20:43;96830.50;;;10.98;100.00
15229;BME280;7717;47.792;12.076;2023-04-09T08:23:10;96839.88;;;10.93;100.00
15229;BME280;7717;47.792;12.076;2023-04-09T08:25:35;96841.59;;;10.89;100.00
15229;BME280;7717;47.792;12.076;2023-04-09T08:28:01;96837.97;;;10.52;100.00
15229;BME280;7717;47.792;12.076;2023-04-09T08:30:26;96851.59;;;10.51;100.00
15229;BME280;7717;47.792;12.076;2023-04-09T08:32:52;96835.75;;;9.89;100.00
15229;BME280;7717;47.792;12.076;2023-04-09T08:35:17;96840.66;;;10.76;100.00
15229;BME280;7717;47.792;12.076;2023-04-09T08:37:43;96840.91;;;11.43;100.00
15229;BME280;7717;47.792;12.076;2023-04-09T08:40:10;96830.69;;;11.78;100.00
15229;BME280;7717;47.792;12.076;2023-04-09T08:42:40;96819.63;;;12.47;100.00
15229;BME280;7717;47.792;12.076;2023-04-09T08:45:07;96830.69;;;11.77;100.00
15229;BME280;7717;47.792;12.076;2023-04-09T08:47:35;96824.56;;;13.07;100.00
15229;BME280;7717;47.792;12.076;2023-04-09T08:50:00;96816.53;;;13.74;100.00
15229;BME280;7717;47.792;12.076;2023-04-09T08:52:33;96830.69;;;14.27;100.00
15229;BME280;7717;47.792;12.076;2023-04-09T08:54:58;96784.41;;;15.64;94.27
15229;BME280;7717;47.792;12.076;2023-04-09T08:57:24;96845.19;;;12.87;100.00
15229;BME280;7717;47.792;12.076;2023-04-09T08:59:49;96840.91;;;12.91;100.00
15229;BME280;7717;47.792;12.076;2023-04-09T09:02:14;96849.50;;;11.57;100.00
15229;BME280;7717;47.792;12.076;2023-04-09T09:04:47;96852.88;;;11.44;100.00
15229;BME280;7717;47.792;12.076;2023-04-09T09:07:14;96833.03;;;13.29;99.49
15229;BME280;7717;47.792;12.076;2023-04-09T09:10:12;96681.88;;;17.08;83.46
15229;BME280;7717;47.792;12.076;2023-04-09T09:12:39;96786.31;;;14.86;86.59
15229;BME280;7717;47.792;12.076;2023-04-09T09:15:24;96801.34;;;14.40;86.96
15229;BME280;7717;47.792;12.076;2023-04-09T09:17:55;96879.88;;;10.66;99.80
15229;BME280;7717;47.792;12.076;2023-04-09T09:20:21;96886.47;;;10.33;100.00
15229;BME280;7717;47.792;12.076;2023-04-09T09:22:53;96821.72;;;15.41;98.45
15229;BME280;7717;47.792;12.076;2023-04-09T09:25:18;96804.22;;;15.62;87.61
15229;BME280;7717;47.792;12.076;2023-04-09T09:27:49;96855.13;;;13.71;92.34
15229;BME280;7717;47.792;12.076;2023-04-09T09:30:22;96802.81;;;14.69;89.42
15229;BME280;7717;47.792;12.076;2023-04-09T09:33:12;96797.16;;;15.12;87.40
15229;BME280;7717;47.792;12.076;2023-04-09T09:35:46;96721.06;;;17.30;80.64
15229;BME280;7717;47.792;12.076;2023-04-09T09:38:13;96808.59;;;17.88;86.07
15229;BME280;7717;47.792;12.076;2023-04-09T09:40:40;96801.50;;;17.60;83.08
15229;BME280;7717;47.792;12.076;2023-04-09T09:43:05;96862.06;;;18.29;87.76
15229;BME280;7717;47.792;12.076;2023-04-09T09:45:31;96775.03;;;17.83;80.78
15229;BME280;7717;47.792;12.076;2023-04-09T09:47:57;96766.75;;;18.72;80.38
15229;BME280;7717;47.792;12.076;2023-04-09T09:50:23;96749.06;;;19.18;77.09
15229;BME280;7717;47.792;12.076;2023-04-09T09:52:57;96874.78;;;16.73;84.57
15229;BME280;7717;47.792;12.076;2023-04-09T09:55:26;96954.78;;;13.02;90.56
15229;BME280;7717;47.792;12.076;2023-04-09T09:57:55;96839.72;;;16.07;84.22
15229;BME280;7717;47.792;12.076;2023-04-09T10:00:24;96870.69;;;14.68;85.56
15229;BME280;7717;47.792;12.076;2023-04-09T10:02:56;96867.78;;;14.99;85.01
15229;BME280;7717;47.792;12.076;2023-04-09T10:05:23;96698.44;;;17.01;73.58
15229;BME280;7717;47.792;12.076;2023-04-09T10:07:56;96848.88;;;14.04;81.93
15229;BME280;7717;47.792;12.076;2023-04-09T10:10:23;96922.09;;;13.52;90.84
15229;BME280;7717;47.792;12.076;2023-04-09T10:12:49;96915.25;;;13.48;93.54
15229;BME280;7717;47.792;12.076;2023-04-09T10:15:17;96802.03;;;15.95;82.35
15229;BME280;7717;47.792;12.076;2023-04-09T10:17:43;96830.19;;;16.10;84.96
15229;BME280;7717;47.792;12.076;2023-04-09T10:20:42;96587.00;;;17.46;67.50
15229;BME280;7717;47.792;12.076;2023-04-09T10:23:20;96730.13;;;19.71;75.39
15229;BME280;7717;47.792;12.076;2023-04-09T10:25:48;96797.00;;;17.68;78.05
15229;BME280;7717;47.792;12.076;2023-04-09T10:28:15;96902.50;;;17.99;88.05
15229;BME280;7717;47.792;12.076;2023-04-09T10:30:41;96865.22;;;19.08;85.71
15229;BME280;7717;47.792;12.076;2023-04-09T10:33:12;96866.97;;;18.04;83.96
15229;BME280;7717;47.792;12.076;2023-04-09T10:35:38;96838.25;;;19.73;82.25
15229;BME280;7717;47.792;12.076;2023-04-09T10:38:07;96769.94;;;20.25;75.84
15229;BME280;7717;47.792;12.076;2023-04-09T10:40:34;96788.28;;;18.43;77.64
15229;BME280;7717;47.792;12.076;2023-04-09T10:43:00;96828.44;;;21.14;80.28
15229;BME280;7717;47.792;12.076;2023-04-09T10:45:38;96594.09;;;20.93;64.76
15229;BME280;7717;47.792;12.076;2023-04-09T10:48:04;96667.00;;;20.21;67.52
15229;BME280;7717;47.792;12.076;2023-04-09T10:50:31;96883.75;;;20.70;84.20
15229;BME280;7717;47.792;12.076;2023-04-09T10:52:57;96835.78;;;20.52;78.91
15229;BME280;7717;47.792;12.076;2023-04-09T10:55:38;96698.13;;;18.54;67.38
15229;BME280;7717;47.792;12.076;2023-04-09T10:58:06;96684.06;;;22.70;68.78
15229;BME280;7717;47.792;12.076;2023-04-09T11:00:36;96824.84;;;20.16;76.34
15229;BME280;7717;47.792;12.076;2023-04-09T11:05:35;96737.56;;;21.53;70.58
15229;BME280;7717;47.792;12.076;2023-04-09T11:08:08;96805.06;;;22.04;76.13
15229;BME280;7717;47.792;12.076;2023-04-09T11:10:34;96843.78;;;19.63;78.58
15229;BME280;7717;47.792;12.076;2023-04-09T11:13:00;96802.41;;;18.31;73.80
15229;BME280;7717;47.792;12.076;2023-04-09T11:15:26;96892.38;;;18.62;82.77
15229;BME280;7717;47.792;12.076;2023-04-09T11:17:52;96888.72;;;17.55;82.13
15229;BME280;7717;47.792;12.076;2023-04-09T11:20:22;96815.16;;;15.79;73.06
15229;BME280;7717;47.792;12.076;2023-04-09T11:22:48;96917.88;;;14.73;81.48
15229;BME280;7717;47.792;12.076;2023-04-09T11:25:23;96880.00;;;14.83;78.03
15229;BME280;7717;47.792;12.076;2023-04-09T11:27:49;96851.16;;;15.23;76.07
15229;BME280;7717;47.792;12.076;2023-04-09T11:30:15;96946.88;;;15.72;86.56
15229;BME280;7717;47.792;12.076;2023-04-09T11:32:40;96815.50;;;16.12;74.93
15229;BME280;7717;47.792;12.076;2023-04-09T11:35:13;96785.50;;;13.91;71.50
15229;BME280;7717;47.792;12.076;2023-04-09T11:37:39;96899.63;;;14.95;81.96
15229;BME280;7717;47.792;12.076;2023-04-09T11:40:06;96917.16;;;16.10;84.78
15229;BME280;7717;47.792;12.076;2023-04-09T11:42:32;96896.19;;;15.68;82.59
15229;BME280;7717;47.792;12.076;2023-04-09T11:44:58;96791.91;;;15.81;73.75
15229;BME280;7717;47.792;12.076;2023-04-09T11:47:25;96806.06;;;14.85;73.67
15229;BME280;7717;47.792;12.076;2023-04-09T11:49:51;96819.25;;;14.56;74.39
15229;BME280;7717;47.792;12.076;2023-04-09T11:52:17;96874.25;;;15.33;80.10
15229;BME280;7717;47.792;12.076;2023-04-09T11:54:52;96822.53;;;14.72;74.57
15229;BME280;7717;47.792;12.076;2023-04-09T11:57:17;96857.53;;;14.94;77.19
15229;BME280;7717;47.792;12.076;2023-04-09T11:59:43;96887.94;;;14.55;79.81
15229;BME280;7717;47.792;12.076;2023-04-09T12:02:08;96926.56;;;14.58;85.21
15229;BME280;7717;47.792;12.076;2023-04-09T12:04:34;96911.53;;;15.08;84.18
15229;BME280;7717;47.792;12.076;2023-04-09T12:07:00;96852.50;;;14.84;79.06
15229;BME280;7717;47.792;12.076;2023-04-09T12:09:25;96853.38;;;15.53;78.52
15229;BME280;7717;47.792;12.076;2023-04-09T12:11:51;96884.59;;;15.99;82.23
15229;BME280;7717;47.792;12.076;2023-04-09T12:14:17;96878.72;;;15.90;80.00
15229;BME280;7717;47.792;12.076;2023-04-09T12:16:43;96792.41;;;16.03;74.25
15229;BME280;7717;47.792;12.076;2023-04-09T12:19:10;96895.84;;;15.94;82.29
15229;BME280;7717;47.792;12.076;2023-04-09T12:21:50;96856.22;;;14.50;77.61
15229;BME280;7717;47.792;12.076;2023-04-09T12:24:18;96944.00;;;14.22;87.41
15229;BME280;7717;47.792;12.076;2023-04-09T12:26:45;96906.69;;;13.52;84.84
15229;BME280;7717;47.792;12.076;2023-04-09T12:29:12;96908.41;;;13.44;87.30
15229;BME280;7717;47.792;12.076;2023-04-09T12:31:38;96899.91;;;13.14;86.19
15229;BME280;7717;47.792;12.076;2023-04-09T12:34:03;96891.47;;;12.61;87.29
15229;BME280;7717;47.792;12.076;2023-04-09T12:36:28;96886.38;;;12.42;89.62
15229;BME280;7717;47.792;12.076;2023-04-09T12:38:54;96892.34;;;12.41;91.22
15229;BME280;7717;47.792;12.076;2023-04-09T12:41:20;96875.25;;;12.02;87.72
15229;BME280;7717;47.792;12.076;2023-04-09T12:43:45;96882.91;;;11.88;89.19
15229;BME280;7717;47.792;12.076;2023-04-09T12:46:11;96893.06;;;11.51;91.11
15229;BME280;7717;47.792;12.076;2023-04-09T12:48:37;96885.34;;;11.45;91.29
15229;BME280;7717;47.792;12.076;2023-04-09T12:51:03;96894.63;;;11.13;91.10
15229;BME280;7717;47.792;12.076;2023-04-09T12:53:29;96886.97;;;11.24;93.97
15229;BME280;7717;47.792;12.076;2023-04-09T12:55:54;96891.13;;;10.96;95.00
15229;BME280;7717;47.792;12.076;2023-04-09T12:58:20;96891.91;;;10.87;95.82
15229;BME280;7717;47.792;12.076;2023-04-09T13:00:45;96878.25;;;10.85;95.75
15229;BME280;7717;47.792;12.076;2023-04-09T13:03:11;96866.91;;;10.43;95.17
15229;BME280;7717;47.792;12.076;2023-04-09T13:05:36;96886.53;;;10.44;96.33
15229;BME280;7717;47.792;12.076;2023-04-09T13:08:02;96880.53;;;10.43;96.41